Time;durP1;ratioP1;P1;durP2;ratioP2;P2;SDS_P1;SDS_P2;PMS_P1;PMS_P2;Temp;Humidity;BMP_temperature;BMP_pressure;BME280_temperature;BME280_humidity;BME280_pressure;Samples;Min_cycle;Max_cycle;Signal;HPM_P1;HPM_P2
2022/04/18 00:02:27;;;;;;;30.05;23.83;;;;;;;;;;8347309;28;27723;-57
2022/04/18 00:06:28;;;;;;;28.77;23.60;;;;;;;;;;8351143;28;27658;-58
2022/04/18 00:10:28;;;;;;;30.17;23.10;;;;;;;;;;8345147;28;27757;-58
2022/04/18 00:14:28;;;;;;;29.35;23.10;;;;;;;;;;8348067;28;28396;-58
2022/04/18 00:18:28;;;;;;;31.53;23.77;;;;;;;;;;8346247;28;27847;-58
2022/04/18 00:22:29;;;;;;;29.17;23.10;;;;;;;;;;8346400;28;27621;-56
2022/04/18 00:26:29;;;;;;;30.90;23.55;;;;;;;;;;8349288;28;27723;-59
2022/04/18 00:30:29;;;;;;;31.30;23.85;;;;;;;;;;8347871;28;27698;-58
2022/04/18 00:34:29;;;;;;;28.67;22.23;;;;;;;;;;8346662;28;28206;-58
2022/04/18 00:38:29;;;;;;;29.63;22.97;;;;;;;;;;8348603;28;27726;-59
2022/04/18 00:42:30;;;;;;;30.17;22.80;;;;;;;;;;8346117;28;27568;-58
2022/04/18 00:46:30;;;;;;;28.88;22.40;;;;;;;;;;8342052;28;28091;-60
2022/04/18 00:50:32;;;;;;;29.65;22.77;;;;;;;;;;8341091;28;27942;-59
2022/04/18 00:54:33;;;;;;;27.33;22.63;;;;;;;;;;8346736;28;27768;-60
2022/04/18 00:58:33;;;;;;;28.20;20.63;;;;;;;;;;8341803;28;28393;-58
2022/04/18 01:02:34;;;;;;;27.90;21.90;;;;;;;;;;8337927;28;28356;-59
2022/04/18 01:06:34;;;;;;;28.17;21.63;;;;;;;;;;8338058;28;27665;-60
2022/04/18 01:10:35;;;;;;;28.67;20.92;;;;;;;;;;8340113;28;27828;-60
2022/04/18 01:14:36;;;;;;;27.50;21.08;;;;;;;;;;8341927;28;27514;-58
2022/04/18 01:18:37;;;;;;;27.05;20.63;;;;;;;;;;8345642;28;28190;-59
2022/04/18 01:22:38;;;;;;;23.45;19.45;;;;;;;;;;8341765;28;27636;-58
2022/04/18 01:30:57;;;;;;;26.67;20.60;;;;;;;;;;8339217;28;28418;-59
2022/04/18 01:34:57;;;;;;;24.05;19.15;;;;;;;;;;8344368;28;28008;-60
2022/04/18 01:38:58;;;;;;;23.50;18.63;;;;;;;;;;8343503;28;28424;-58
2022/04/18 01:42:58;;;;;;;24.60;18.63;;;;;;;;;;8344725;28;28034;-57
2022/04/18 01:46:58;;;;;;;24.50;19.05;;;;;;;;;;8343535;28;27451;-59
2022/04/18 01:50:58;;;;;;;23.65;19.10;;;;;;;;;;8344530;28;27774;-59
2022/04/18 01:54:59;;;;;;;25.10;18.20;;;;;;;;;;8341672;28;27785;-59
2022/04/18 01:58:59;;;;;;;22.23;17.30;;;;;;;;;;8340519;28;27619;-58
2022/04/18 02:02:59;;;;;;;22.83;17.83;;;;;;;;;;8341928;28;28172;-60
2022/04/18 02:07:00;;;;;;;21.20;16.42;;;;;;;;;;8345480;28;27538;-58
2022/04/18 02:11:00;;;;;;;24.07;17.40;;;;;;;;;;8339615;28;27771;-59
2022/04/18 02:15:00;;;;;;;20.93;17.13;;;;;;;;;;8345341;28;27922;-60
2022/04/18 02:19:00;;;;;;;21.45;17.13;;;;;;;;;;8343803;28;27668;-57
2022/04/18 02:23:01;;;;;;;21.17;16.83;;;;;;;;;;8341408;28;28273;-58
2022/04/18 02:27:04;;;;;;;20.85;16.25;;;;;;;;;;8344506;28;27632;-59
2022/04/18 02:31:04;;;;;;;19.83;15.85;;;;;;;;;;8338059;28;28304;-58
2022/04/18 02:35:04;;;;;;;20.05;15.55;;;;;;;;;;8341723;28;27541;-57
2022/04/18 02:39:05;;;;;;;21.52;15.35;;;;;;;;;;8339648;28;27570;-57
2022/04/18 02:43:05;;;;;;;19.13;14.60;;;;;;;;;;8342743;28;28010;-60
2022/04/18 02:47:05;;;;;;;21.02;15.45;;;;;;;;;;8340897;28;27688;-58
2022/04/18 02:51:05;;;;;;;19.95;15.35;;;;;;;;;;8340950;28;28362;-59
2022/04/18 02:55:06;;;;;;;20.25;15.10;;;;;;;;;;8341891;28;28181;-58
2022/04/18 02:59:06;;;;;;;18.17;14.30;;;;;;;;;;8340125;28;27974;-59
2022/04/18 03:03:06;;;;;;;18.38;14.15;;;;;;;;;;8342888;28;29718;-58
2022/04/18 03:07:07;;;;;;;19.73;14.23;;;;;;;;;;8343988;28;27749;-57
2022/04/18 03:11:07;;;;;;;17.77;13.23;;;;;;;;;;8358024;28;28693;-60
2022/04/18 03:15:08;;;;;;;16.95;13.73;;;;;;;;;;8350652;28;28264;-60
2022/04/18 03:19:32;;;;;;;18.10;13.77;;;;;;;;;;8345696;28;27763;-56
2022/04/18 03:28:32;;;;;;;14.48;11.27;;;;;;;;;;8276511;28;27783;-57
2022/04/18 03:32:32;;;;;;;15.90;12.25;;;;;;;;;;8325416;28;27731;-57
2022/04/18 03:40:52;;;;;;;16.73;12.77;;;;;;;;;;8348797;28;27704;-59
2022/04/18 03:44:52;;;;;;;13.85;10.85;;;;;;;;;;8348424;28;27612;-58
2022/04/18 03:48:53;;;;;;;16.55;11.50;;;;;;;;;;8349016;28;27596;-60
2022/04/18 03:52:53;;;;;;;15.52;11.43;;;;;;;;;;8347090;28;29053;-58
2022/04/18 03:56:53;;;;;;;14.68;11.57;;;;;;;;;;8348703;28;27631;-58
2022/04/18 04:00:53;;;;;;;14.30;11.53;;;;;;;;;;8344170;28;28285;-59
2022/04/18 04:04:54;;;;;;;14.68;12.15;;;;;;;;;;8348485;28;27990;-58
2022/04/18 04:08:54;;;;;;;14.73;12.03;;;;;;;;;;8346861;28;27744;-57
2022/04/18 04:12:54;;;;;;;14.57;11.55;;;;;;;;;;8348147;28;27679;-58
2022/04/18 04:16:54;;;;;;;16.33;12.83;;;;;;;;;;8350664;28;27263;-57
2022/04/18 04:20:55;;;;;;;14.77;11.75;;;;;;;;;;8347848;28;27907;-57
2022/04/18 04:24:55;;;;;;;16.17;12.23;;;;;;;;;;8351041;28;27885;-56
2022/04/18 04:28:55;;;;;;;16.10;12.05;;;;;;;;;;8347370;28;28327;-59
2022/04/18 04:32:55;;;;;;;14.97;12.27;;;;;;;;;;8348125;28;27723;-59
2022/04/18 04:37:30;;;;;;;14.35;12.27;;;;;;;;;;8349120;28;27687;-57
2022/04/18 04:41:30;;;;;;;14.13;11.65;;;;;;;;;;8347439;28;27977;-60
2022/04/18 04:45:33;;;;;;;15.25;12.63;;;;;;;;;;8357329;28;27895;-60
2022/04/18 04:49:33;;;;;;;17.80;11.95;;;;;;;;;;8348137;28;27671;-59
2022/04/18 04:53:34;;;;;;;15.07;12.18;;;;;;;;;;8347580;28;27351;-58
2022/04/18 04:57:34;;;;;;;15.05;12.65;;;;;;;;;;8349251;28;28211;-55
2022/04/18 05:01:34;;;;;;;14.13;11.73;;;;;;;;;;8346054;28;28262;-59
2022/04/18 05:05:35;;;;;;;14.43;12.17;;;;;;;;;;8344897;28;27666;-57
2022/04/18 05:09:35;;;;;;;14.07;11.43;;;;;;;;;;8344930;28;28050;-57
2022/04/18 05:13:35;;;;;;;13.93;11.43;;;;;;;;;;8349793;28;27774;-58
2022/04/18 05:17:36;;;;;;;11.95;10.43;;;;;;;;;;8349556;28;27999;-58
2022/04/18 05:21:36;;;;;;;13.13;10.82;;;;;;;;;;8345709;28;27884;-57
2022/04/18 05:25:36;;;;;;;13.50;10.85;;;;;;;;;;8347146;28;27568;-56
2022/04/18 05:29:36;;;;;;;13.02;10.77;;;;;;;;;;8343845;28;27677;-59
2022/04/18 05:33:36;;;;;;;13.85;10.75;;;;;;;;;;8347998;28;28124;-58
2022/04/18 05:37:37;;;;;;;13.60;10.93;;;;;;;;;;8346925;28;27565;-58
2022/04/18 05:41:37;;;;;;;11.70;10.32;;;;;;;;;;8345933;28;28015;-57
2022/04/18 05:45:38;;;;;;;11.15;9.50;;;;;;;;;;8346458;28;27677;-60
2022/04/18 05:49:38;;;;;;;11.65;9.05;;;;;;;;;;8344456;28;27332;-59
2022/04/18 05:53:38;;;;;;;12.43;10.10;;;;;;;;;;8344825;28;27714;-58
2022/04/18 05:57:39;;;;;;;10.75;9.57;;;;;;;;;;8348279;28;27682;-58
2022/04/18 06:01:39;;;;;;;10.63;9.15;;;;;;;;;;8345195;28;27629;-57
2022/04/18 06:05:39;;;;;;;10.25;9.10;;;;;;;;;;8344426;28;27806;-59
2022/04/18 06:09:39;;;;;;;10.63;8.63;;;;;;;;;;8345956;28;28497;-59
2022/04/18 06:13:40;;;;;;;12.38;9.32;;;;;;;;;;8348233;28;27979;-57
2022/04/18 06:17:40;;;;;;;10.47;8.53;;;;;;;;;;8346684;28;27899;-58
2022/04/18 06:21:40;;;;;;;10.47;8.70;;;;;;;;;;8347184;28;27589;-57
2022/04/18 06:25:40;;;;;;;12.48;8.43;;;;;;;;;;8348468;28;27513;-60
2022/04/18 06:29:40;;;;;;;9.48;7.95;;;;;;;;;;8343892;28;27445;-57
2022/04/18 06:33:41;;;;;;;9.45;7.93;;;;;;;;;;8345159;28;27486;-59
2022/04/18 06:37:41;;;;;;;9.00;7.78;;;;;;;;;;8348204;28;29448;-57
2022/04/18 06:41:41;;;;;;;8.73;7.35;;;;;;;;;;8342026;28;27673;-58
2022/04/18 06:45:44;;;;;;;10.55;7.90;;;;;;;;;;8346270;28;28702;-58
2022/04/18 06:49:47;;;;;;;8.82;7.35;;;;;;;;;;8349934;28;27611;-57
2022/04/18 06:53:47;;;;;;;9.10;7.38;;;;;;;;;;8354167;28;27576;-57
2022/04/18 06:57:48;;;;;;;8.63;7.03;;;;;;;;;;8350326;28;27844;-59
2022/04/18 07:01:48;;;;;;;8.52;7.13;;;;;;;;;;8351185;28;28648;-60
2022/04/18 07:05:49;;;;;;;9.07;7.03;;;;;;;;;;8368799;28;28940;-58
2022/04/18 07:09:49;;;;;;;9.17;6.57;;;;;;;;;;8346598;28;28181;-60
2022/04/18 07:13:49;;;;;;;8.00;6.80;;;;;;;;;;8352060;28;28762;-58
2022/04/18 07:17:49;;;;;;;8.07;6.60;;;;;;;;;;8351510;28;27618;-59
2022/04/18 07:21:50;;;;;;;7.60;6.25;;;;;;;;;;8346668;28;28549;-60
2022/04/18 07:25:51;;;;;;;7.15;6.18;;;;;;;;;;8349770;28;27948;-58
2022/04/18 07:29:51;;;;;;;7.90;5.88;;;;;;;;;;8347810;28;28142;-57
2022/04/18 07:33:51;;;;;;;8.77;6.00;;;;;;;;;;8349856;28;27611;-59
2022/04/18 07:55:56;;;;;;;9.32;5.93;;;;;;;;;;8337134;28;27515;-60
2022/04/18 07:59:56;;;;;;;8.68;5.97;;;;;;;;;;8346888;28;27706;-60
2022/04/18 08:04:00;;;;;;;7.88;5.88;;;;;;;;;;8347882;28;27711;-58
2022/04/18 08:08:00;;;;;;;7.28;6.07;;;;;;;;;;8351604;28;27836;-58
2022/04/18 08:12:00;;;;;;;8.02;6.65;;;;;;;;;;8348899;28;27652;-59
2022/04/18 08:16:01;;;;;;;9.55;6.63;;;;;;;;;;8350082;28;27553;-60
2022/04/18 08:20:01;;;;;;;9.43;7.23;;;;;;;;;;8345512;28;27701;-59
2022/04/18 08:24:01;;;;;;;9.57;7.47;;;;;;;;;;8350736;28;27746;-59
2022/04/18 08:28:01;;;;;;;8.83;7.17;;;;;;;;;;8348726;28;28035;-59
2022/04/18 08:32:02;;;;;;;9.63;7.45;;;;;;;;;;8344778;28;28191;-59
2022/04/18 08:36:03;;;;;;;10.10;7.50;;;;;;;;;;8347042;28;27786;-60
2022/04/18 08:40:04;;;;;;;10.60;7.90;;;;;;;;;;8348618;28;27558;-59
2022/04/18 08:44:04;;;;;;;9.60;7.30;;;;;;;;;;8348210;28;28214;-59
2022/04/18 08:52:43;;;;;;;11.15;8.50;;;;;;;;;;8342365;28;27870;-58
2022/04/18 08:56:43;;;;;;;14.00;10.95;;;;;;;;;;8344517;28;27818;-58
2022/04/18 09:00:43;;;;;;;14.85;11.27;;;;;;;;;;8342468;28;27941;-59
2022/04/18 09:04:44;;;;;;;10.40;6.65;;;;;;;;;;8345128;28;27955;-60
2022/04/18 09:08:46;;;;;;;9.43;7.03;;;;;;;;;;8347017;28;28514;-60
2022/04/18 09:12:46;;;;;;;6.53;4.90;;;;;;;;;;8347253;28;27434;-59
2022/04/18 09:16:46;;;;;;;7.57;4.20;;;;;;;;;;8346590;28;27736;-59
2022/04/18 09:20:58;;;;;;;7.85;4.70;;;;;;;;;;8344738;28;27610;-56
2022/04/18 09:24:58;;;;;;;8.60;4.47;;;;;;;;;;8347616;28;27910;-59
2022/04/18 09:29:05;;;;;;;5.72;3.92;;;;;;;;;;8344227;28;28500;-59
2022/04/18 09:33:06;;;;;;;4.68;3.30;;;;;;;;;;8345134;28;28240;-58
2022/04/18 09:37:19;;;;;;;5.50;3.92;;;;;;;;;;8347823;28;27960;-58
